createdAt,value
2019-05-02T00:00:24.391Z,0.00
2019-05-02T00:01:24.381Z,0.00
2019-05-02T00:02:28.806Z,0.00
2019-05-02T00:03:25.379Z,0.00
2019-05-02T00:04:24.359Z,0.00
2019-05-02T00:05:27.442Z,0.00
2019-05-02T00:06:25.328Z,0.00
2019-05-02T00:07:24.318Z,0.00
2019-05-02T00:08:24.330Z,0.00
2019-05-02T00:09:24.308Z,0.00
2019-05-02T00:10:24.859Z,0.00
2019-05-02T00:11:24.285Z,0.00
2019-05-02T00:12:24.265Z,0.00
2019-05-02T00:13:24.257Z,0.00
2019-05-02T00:14:24.244Z,0.00
2019-05-02T00:15:24.245Z,0.00
2019-05-02T00:16:24.224Z,0.00
2019-05-02T00:17:25.555Z,0.00
2019-05-02T00:18:24.202Z,0.00
2019-05-02T00:19:24.191Z,0.00
2019-05-02T00:20:25.995Z,0.00
2019-05-02T00:21:24.180Z,0.00
2019-05-02T00:22:24.161Z,0.00
2019-05-02T00:23:27.924Z,0.00
2019-05-02T00:24:25.150Z,0.00
2019-05-02T00:25:24.127Z,0.00
2019-05-02T00:26:24.838Z,0.00
2019-05-02T00:27:24.131Z,0.00
2019-05-02T00:28:24.099Z,0.00
2019-05-02T00:29:25.053Z,0.00
2019-05-02T00:30:24.075Z,0.00
2019-05-02T00:31:24.063Z,0.00
2019-05-02T00:32:24.055Z,0.00
2019-05-02T00:33:24.055Z,0.00
2019-05-02T00:34:24.033Z,0.00
2019-05-02T00:35:24.020Z,0.00
2019-05-02T00:36:24.017Z,0.00
2019-05-02T00:37:24.628Z,0.00
2019-05-02T00:38:23.986Z,0.00
2019-05-02T00:39:23.995Z,0.00
2019-05-02T00:40:25.699Z,0.00
2019-05-02T00:41:23.954Z,0.00
2019-05-02T00:42:24.205Z,0.00
2019-05-02T00:43:23.934Z,0.00
2019-05-02T00:44:23.930Z,0.00
2019-05-02T00:45:25.825Z,0.00
2019-05-02T00:46:23.908Z,0.00
2019-05-02T00:47:23.889Z,0.00
2019-05-02T00:48:24.423Z,0.00
2019-05-02T00:49:23.871Z,0.00
2019-05-02T00:50:23.856Z,0.00
2019-05-02T00:51:26.703Z,0.00
2019-05-02T00:52:23.836Z,0.00
2019-05-02T00:53:23.824Z,0.00
2019-05-02T00:54:25.244Z,0.00
2019-05-02T00:55:23.803Z,0.00
2019-05-02T00:56:23.793Z,0.00
2019-05-02T00:57:23.799Z,0.00
2019-05-02T00:58:27.177Z,0.00
2019-05-02T00:59:24.759Z,0.00
2019-05-02T01:00:23.771Z,0.00
2019-05-02T01:01:24.328Z,0.00
2019-05-02T01:02:24.745Z,0.00
2019-05-02T01:03:23.718Z,0.00
2019-05-02T01:04:27.429Z,0.00
2019-05-02T01:05:24.695Z,0.00
2019-05-02T01:06:23.686Z,0.00
2019-05-02T01:07:25.596Z,0.00
2019-05-02T01:08:23.683Z,0.00
2019-05-02T01:09:23.676Z,0.00
2019-05-02T01:10:23.648Z,0.00
2019-05-02T01:11:23.632Z,0.00
2019-05-02T01:12:26.675Z,0.00
2019-05-02T01:13:23.619Z,0.00
2019-05-02T01:14:27.291Z,0.00
2019-05-02T01:15:24.594Z,0.00
2019-05-02T01:16:23.582Z,0.00
2019-05-02T01:17:26.085Z,0.00
2019-05-02T01:18:24.569Z,0.00
2019-05-02T01:19:23.547Z,0.00
2019-05-02T01:20:27.409Z,0.00
2019-05-02T01:21:23.526Z,0.00
2019-05-02T01:22:23.530Z,0.00
2019-05-02T01:23:27.653Z,0.00
2019-05-02T01:24:24.494Z,0.00
2019-05-02T01:25:23.485Z,0.00
2019-05-02T01:26:24.133Z,0.00
2019-05-02T01:27:24.465Z,0.00
2019-05-02T01:28:23.457Z,0.00
2019-05-02T01:29:24.787Z,0.00
2019-05-02T01:30:24.433Z,0.00
2019-05-02T01:31:23.421Z,0.00
2019-05-02T01:32:25.262Z,0.00
2019-05-02T01:33:24.401Z,0.00
2019-05-02T01:34:23.393Z,0.00
2019-05-02T01:35:26.937Z,0.00
2019-05-02T01:36:24.370Z,0.00
2019-05-02T01:37:23.363Z,0.00
2019-05-02T01:38:26.192Z,0.00
2019-05-02T01:39:24.337Z,0.00
2019-05-02T01:40:23.326Z,0.00
2019-05-02T01:41:24.118Z,0.00
2019-05-02T01:42:24.304Z,0.00
2019-05-02T01:43:24.192Z,0.00
2019-05-02T01:44:23.297Z,0.00
2019-05-02T01:45:23.274Z,0.00
2019-05-02T01:46:24.164Z,0.00
2019-05-02T01:47:23.254Z,0.00
2019-05-02T01:48:23.244Z,0.00
2019-05-02T01:49:23.263Z,0.00
2019-05-02T01:50:23.237Z,0.00
2019-05-02T01:51:23.217Z,0.00
2019-05-02T01:52:23.667Z,0.00
2019-05-02T01:53:23.198Z,0.00
2019-05-02T01:54:23.179Z,0.00
2019-05-02T01:55:23.191Z,0.00
2019-05-02T01:56:23.168Z,0.00
2019-05-02T01:57:23.148Z,0.00
2019-05-02T01:58:23.136Z,0.00
2019-05-02T01:59:23.128Z,0.00
2019-05-02T02:00:23.115Z,0.00
2019-05-02T02:01:23.371Z,0.00
2019-05-02T02:02:23.106Z,0.00
2019-05-02T02:03:23.084Z,0.00
2019-05-02T02:04:23.075Z,0.00
2019-05-02T02:05:23.062Z,0.00
2019-05-02T02:06:23.053Z,0.00
2019-05-02T02:07:23.044Z,0.00
2019-05-02T02:08:27.390Z,0.00
2019-05-02T02:09:24.020Z,0.00
2019-05-02T02:10:23.010Z,0.00
2019-05-02T02:11:23.000Z,0.00
2019-05-02T02:12:22.991Z,0.00
2019-05-02T02:13:22.979Z,0.00
2019-05-02T02:14:22.978Z,0.00
2019-05-02T02:15:25.045Z,0.00
2019-05-02T02:16:23.945Z,0.00
2019-05-02T02:17:22.937Z,0.00
2019-05-02T02:18:27.729Z,0.00
2019-05-02T02:19:23.927Z,0.00
2019-05-02T02:20:22.904Z,0.00
2019-05-02T02:21:25.850Z,0.00
2019-05-02T02:22:22.884Z,0.00
2019-05-02T02:23:22.872Z,0.00
2019-05-02T02:24:25.196Z,0.00
2019-05-02T02:25:22.865Z,0.00
2019-05-02T02:26:22.846Z,0.00
2019-05-02T02:27:24.607Z,0.00
2019-05-02T02:28:22.821Z,0.00
2019-05-02T02:29:22.810Z,0.00
2019-05-02T02:30:24.681Z,0.00
2019-05-02T02:31:22.800Z,0.00
2019-05-02T02:32:26.803Z,0.00
2019-05-02T02:33:23.769Z,0.00
2019-05-02T02:34:29.237Z,0.00
2019-05-02T02:35:23.749Z,0.00
2019-05-02T02:36:31.491Z,0.00
2019-05-02T02:37:23.737Z,0.00
2019-05-02T02:38:26.785Z,0.00
2019-05-02T02:39:23.704Z,0.00
2019-05-02T02:40:32.567Z,0.00
2019-05-02T02:41:23.682Z,0.00
2019-05-02T02:42:25.000Z,0.00
2019-05-02T02:43:34.390Z,0.00
2019-05-02T02:44:23.650Z,0.00
2019-05-02T02:45:22.642Z,0.00
2019-05-02T02:46:22.631Z,0.00
2019-05-02T02:47:22.621Z,0.00
2019-05-02T02:48:22.610Z,0.00
2019-05-02T02:49:24.528Z,0.00
2019-05-02T02:50:22.606Z,0.00
2019-05-02T02:51:24.539Z,0.00
2019-05-02T02:52:22.567Z,0.00
2019-05-02T02:53:24.179Z,0.00
2019-05-02T02:54:22.545Z,0.00
2019-05-02T02:55:24.482Z,0.00
2019-05-02T02:56:22.524Z,0.00
2019-05-02T02:57:27.926Z,0.00
2019-05-02T02:58:23.501Z,0.00
2019-05-02T02:59:26.442Z,0.00
2019-05-02T03:00:22.481Z,0.00
2019-05-02T03:01:28.920Z,0.00
2019-05-02T03:02:23.459Z,0.00
2019-05-02T03:03:27.790Z,0.00
2019-05-02T03:04:23.443Z,0.00
2019-05-02T03:05:26.148Z,0.00
2019-05-02T03:06:23.424Z,0.00
2019-05-02T03:07:25.743Z,0.00
2019-05-02T03:08:23.406Z,0.00
2019-05-02T03:09:26.478Z,0.00
2019-05-02T03:10:23.378Z,0.00
2019-05-02T03:11:23.428Z,0.00
2019-05-02T03:12:22.371Z,0.00
2019-05-02T03:13:24.250Z,0.00
2019-05-02T03:14:22.334Z,0.00
2019-05-02T03:15:27.949Z,0.00
2019-05-02T03:16:23.307Z,0.00
2019-05-02T03:17:26.409Z,0.00
2019-05-02T03:18:26.928Z,0.00
2019-05-02T03:19:23.258Z,0.00
2019-05-02T03:20:22.266Z,0.00
2019-05-02T03:21:22.700Z,0.00
2019-05-02T03:22:22.253Z,0.00
2019-05-02T03:23:24.151Z,0.00
2019-05-02T03:24:22.234Z,0.00
2019-05-02T03:25:26.942Z,0.00
2019-05-02T03:26:23.206Z,0.00
2019-05-02T03:27:22.191Z,0.00
2019-05-02T03:28:22.179Z,0.00
2019-05-02T03:29:22.173Z,0.00
2019-05-02T03:30:33.002Z,0.00
2019-05-02T03:31:29.021Z,0.00
2019-05-02T03:32:33.111Z,0.00
2019-05-02T03:33:23.126Z,0.00
2019-05-02T03:34:22.140Z,0.00
2019-05-02T03:35:40.415Z,0.00
2019-05-02T03:36:30.065Z,0.00
2019-05-02T03:37:23.083Z,0.00
2019-05-02T03:38:31.348Z,0.00
2019-05-02T03:39:23.059Z,4.00
2019-05-02T03:40:22.051Z,4.00
2019-05-02T03:41:23.567Z,0.00
2019-05-02T03:42:22.052Z,0.00
2019-05-02T03:43:25.735Z,4.00
2019-05-02T03:44:25.941Z,4.00
2019-05-02T03:45:22.007Z,4.00
2019-05-02T03:46:22.770Z,8.00
2019-05-02T03:47:21.976Z,8.00
2019-05-02T03:48:25.714Z,4.00
2019-05-02T03:49:22.953Z,8.00
2019-05-02T03:50:31.663Z,8.00
2019-05-02T03:51:25.264Z,8.00
2019-05-02T03:52:21.921Z,12.00
2019-05-02T03:53:24.965Z,16.00
2019-05-02T03:54:22.919Z,16.00
2019-05-02T03:55:23.719Z,16.00
2019-05-02T03:56:22.883Z,20.00
2019-05-02T03:57:31.672Z,20.00
2019-05-02T03:58:22.856Z,24.00
2019-05-02T03:59:21.845Z,24.00
2019-05-02T04:00:24.357Z,28.00
2019-05-02T04:01:21.826Z,28.00
2019-05-02T04:02:21.949Z,28.00
2019-05-02T04:03:21.814Z,36.00
2019-05-02T04:04:22.788Z,36.00
2019-05-02T04:05:21.788Z,40.00
2019-05-02T04:06:23.785Z,44.00
2019-05-02T04:07:21.763Z,52.00
2019-05-02T04:08:22.754Z,56.00
2019-05-02T04:09:21.739Z,64.00
2019-05-02T04:10:21.727Z,72.00
2019-05-02T04:11:21.716Z,80.00
2019-05-02T04:12:22.023Z,84.00
2019-05-02T04:13:21.695Z,88.00
2019-05-02T04:14:36.806Z,92.00
2019-05-02T04:15:28.690Z,104.00
2019-05-02T04:16:22.668Z,116.00
2019-05-02T04:17:21.653Z,120.00
2019-05-02T04:18:21.657Z,116.00
2019-05-02T04:19:21.631Z,124.00
2019-05-02T04:20:21.620Z,124.00
2019-05-02T04:21:24.434Z,124.00
2019-05-02T04:22:21.597Z,128.00
2019-05-02T04:23:27.659Z,128.00
2019-05-02T04:24:22.595Z,136.00
2019-05-02T04:25:28.088Z,136.00
2019-05-02T04:26:22.560Z,136.00
2019-05-02T04:27:21.544Z,136.00
2019-05-02T04:28:21.532Z,148.00
2019-05-02T04:29:24.581Z,160.00
2019-05-02T04:30:22.524Z,176.00
2019-05-02T04:31:24.877Z,184.00
2019-05-02T04:32:22.498Z,192.00
2019-05-02T04:33:21.491Z,200.00
2019-05-02T04:34:21.471Z,204.00
2019-05-02T04:35:21.457Z,220.00
2019-05-02T04:36:21.459Z,240.00
2019-05-02T04:37:21.439Z,248.00
2019-05-02T04:38:31.634Z,252.00
2019-05-02T04:39:22.421Z,264.00
2019-05-02T04:40:21.406Z,272.00
2019-05-02T04:41:28.500Z,296.00
2019-05-02T04:42:23.340Z,300.00
2019-05-02T04:43:21.392Z,296.00
2019-05-02T04:44:21.372Z,300.00
2019-05-02T04:45:28.767Z,304.00
2019-05-02T04:46:27.286Z,300.00
2019-05-02T04:47:22.419Z,320.00
2019-05-02T04:48:21.332Z,348.00
2019-05-02T04:49:29.899Z,376.00
2019-05-02T04:50:25.381Z,372.00
2019-05-02T04:51:21.286Z,336.00
2019-05-02T04:52:21.484Z,348.00
2019-05-02T04:53:26.068Z,380.00
2019-05-02T04:54:28.033Z,404.00
2019-05-02T04:55:29.224Z,408.00
2019-05-02T04:56:22.234Z,416.00
2019-05-02T04:57:29.763Z,420.00
2019-05-02T04:58:28.002Z,428.00
2019-05-02T04:59:23.111Z,432.00
2019-05-02T05:00:21.200Z,436.00
2019-05-02T05:01:21.628Z,460.00
2019-05-02T05:02:29.625Z,496.00
2019-05-02T05:03:22.155Z,492.00
2019-05-02T05:04:21.146Z,504.00
2019-05-02T05:05:25.488Z,548.00
2019-05-02T05:06:22.134Z,540.00
2019-05-02T05:07:21.115Z,560.00
2019-05-02T05:08:26.303Z,568.00
2019-05-02T05:09:22.090Z,572.00
2019-05-02T05:10:21.081Z,588.00
2019-05-02T05:11:24.836Z,600.00
2019-05-02T05:12:21.069Z,624.00
2019-05-02T05:13:23.305Z,656.00
2019-05-02T05:14:21.039Z,648.00
2019-05-02T05:15:35.494Z,700.00
2019-05-02T05:16:22.014Z,716.00
2019-05-02T05:17:25.196Z,664.00
2019-05-02T05:18:22.008Z,636.00
2019-05-02T05:19:23.141Z,624.00
2019-05-02T05:20:21.975Z,624.00
2019-05-02T05:21:24.682Z,628.00
2019-05-02T05:22:20.956Z,664.00
2019-05-02T05:23:21.617Z,708.00
2019-05-02T05:24:20.950Z,720.00
2019-05-02T05:25:21.421Z,692.00
2019-05-02T05:26:20.909Z,684.00
2019-05-02T05:27:22.770Z,736.00
2019-05-02T05:28:20.888Z,740.00
2019-05-02T05:29:23.284Z,780.00
2019-05-02T05:30:20.880Z,740.00
2019-05-02T05:31:23.975Z,740.00
2019-05-02T05:32:20.844Z,760.00
2019-05-02T05:33:20.836Z,808.00
2019-05-02T05:34:22.785Z,816.00
2019-05-02T05:35:21.832Z,872.00
2019-05-02T05:36:29.169Z,840.00
2019-05-02T05:37:21.788Z,808.00
2019-05-02T05:38:23.060Z,820.00
2019-05-02T05:39:21.766Z,904.00
2019-05-02T05:40:22.482Z,912.00
2019-05-02T05:41:23.272Z,928.00
2019-05-02T05:42:23.147Z,960.00
2019-05-02T05:43:21.723Z,920.00
2019-05-02T05:44:23.228Z,884.00
2019-05-02T05:45:21.701Z,852.00
2019-05-02T05:46:20.691Z,908.00
2019-05-02T05:47:21.413Z,920.00
2019-05-02T05:48:20.671Z,892.00
2019-05-02T05:49:21.843Z,924.00
2019-05-02T05:50:20.649Z,928.00
2019-05-02T05:51:20.847Z,984.00
2019-05-02T05:52:20.627Z,960.00
2019-05-02T05:53:21.405Z,980.00
2019-05-02T05:54:20.605Z,956.00
2019-05-02T05:55:24.202Z,1024.00
2019-05-02T05:56:20.585Z,984.00
2019-05-02T05:57:21.214Z,972.00
2019-05-02T05:58:20.561Z,1008.00
2019-05-02T05:59:22.316Z,1004.00
2019-05-02T06:00:23.171Z,1024.00
2019-05-02T06:01:20.642Z,1032.00
2019-05-02T06:02:20.517Z,1036.00
2019-05-02T06:03:20.511Z,972.00
2019-05-02T06:04:23.642Z,1016.00
2019-05-02T06:05:21.494Z,1060.00
2019-05-02T06:06:23.204Z,1028.00
2019-05-02T06:07:20.463Z,1100.00
2019-05-02T06:08:20.452Z,1108.00
2019-05-02T06:09:20.441Z,1196.00
2019-05-02T06:10:20.432Z,1268.00
2019-05-02T06:11:21.782Z,1268.00
2019-05-02T06:12:20.408Z,1248.00
2019-05-02T06:13:20.402Z,1272.00
2019-05-02T06:14:24.888Z,1280.00
2019-05-02T06:15:21.376Z,1236.00
2019-05-02T06:16:20.367Z,1176.00
2019-05-02T06:17:23.165Z,1224.00
2019-05-02T06:18:21.342Z,1272.00
2019-05-02T06:19:20.333Z,1328.00
2019-05-02T06:20:20.322Z,1364.00
2019-05-02T06:21:20.322Z,1436.00
2019-05-02T06:22:24.325Z,1420.00
2019-05-02T06:23:21.299Z,1452.00
2019-05-02T06:24:20.278Z,1480.00
2019-05-02T06:25:32.929Z,1532.00
2019-05-02T06:26:21.256Z,1556.00
2019-05-02T06:27:20.800Z,1552.00
2019-05-02T06:28:20.234Z,1524.00
2019-05-02T06:29:20.942Z,1552.00
2019-05-02T06:30:20.215Z,1668.00
2019-05-02T06:31:20.202Z,1760.00
2019-05-02T06:32:20.710Z,1780.00
2019-05-02T06:33:20.180Z,1824.00
2019-05-02T06:34:20.171Z,1884.00
2019-05-02T06:35:21.116Z,1852.00
2019-05-02T06:36:20.148Z,1760.00
2019-05-02T06:37:20.140Z,1624.00
2019-05-02T06:38:21.554Z,1528.00
2019-05-02T06:39:20.114Z,1584.00
2019-05-02T06:40:20.104Z,1596.00
2019-05-02T06:41:20.913Z,1620.00
2019-05-02T06:42:20.082Z,1580.00
2019-05-02T06:43:20.072Z,1616.00
2019-05-02T06:44:23.980Z,1708.00
2019-05-02T06:45:21.049Z,1820.00
2019-05-02T06:46:21.594Z,1796.00
2019-05-02T06:47:21.039Z,1848.00
2019-05-02T06:48:20.019Z,2068.00
2019-05-02T06:49:24.288Z,1996.00
2019-05-02T06:50:20.995Z,1860.00
2019-05-02T06:51:21.159Z,1984.00
2019-05-02T06:52:19.974Z,1956.00
2019-05-02T06:53:19.975Z,2000.00
2019-05-02T06:54:22.846Z,2240.00
2019-05-02T06:55:19.942Z,2176.00
2019-05-02T06:56:19.931Z,2056.00
2019-05-02T06:57:24.013Z,2128.00
2019-05-02T06:58:20.927Z,2296.00
2019-05-02T06:59:20.336Z,2440.00
2019-05-02T07:00:19.888Z,2676.00
2019-05-02T07:01:21.400Z,3100.00
2019-05-02T07:02:19.866Z,2840.00
2019-05-02T07:03:19.855Z,2572.00
2019-05-02T07:04:22.793Z,3544.00
2019-05-02T07:05:19.839Z,4064.00
2019-05-02T07:06:19.864Z,3832.00
2019-05-02T07:07:24.560Z,5208.00
2019-05-02T07:08:20.808Z,5776.00
2019-05-02T07:09:19.885Z,5468.00
2019-05-02T07:10:25.091Z,4836.00
2019-05-02T07:11:20.769Z,5508.00
2019-05-02T07:12:19.763Z,7212.00
2019-05-02T07:13:19.749Z,7540.00
2019-05-02T07:14:23.651Z,5488.00
2019-05-02T07:15:20.823Z,5496.00
2019-05-02T07:16:37.186Z,5784.00
2019-05-02T07:17:20.705Z,5724.00
2019-05-02T07:18:19.694Z,6824.00
2019-05-02T07:19:21.885Z,7932.00
2019-05-02T07:20:20.675Z,18752.00
2019-05-02T07:21:23.403Z,8932.00
2019-05-02T07:22:19.653Z,9888.00
2019-05-02T07:23:19.640Z,19168.00
2019-05-02T07:24:19.629Z,8028.00
2019-05-02T07:25:19.619Z,8212.00
2019-05-02T07:26:21.041Z,6480.00
2019-05-02T07:27:19.608Z,6372.00
2019-05-02T07:28:19.586Z,5452.00
2019-05-02T07:29:21.848Z,5704.00
2019-05-02T07:30:19.564Z,5848.00
2019-05-02T07:31:19.554Z,6640.00
2019-05-02T07:32:24.478Z,6024.00
2019-05-02T07:33:20.542Z,5896.00
2019-05-02T07:34:19.521Z,7456.00
2019-05-02T07:35:24.568Z,18176.00
2019-05-02T07:36:20.499Z,10400.00
2019-05-02T07:37:19.489Z,19040.00
2019-05-02T07:38:20.142Z,8252.00
2019-05-02T07:39:20.480Z,7556.00
2019-05-02T07:40:19.457Z,9880.00
2019-05-02T07:41:19.447Z,7004.00
2019-05-02T07:42:19.437Z,7892.00
2019-05-02T07:43:22.167Z,14436.00
2019-05-02T07:44:19.417Z,6336.00
2019-05-02T07:45:19.414Z,6840.00
2019-05-02T07:46:20.931Z,6292.00
2019-05-02T07:47:19.384Z,6116.00
2019-05-02T07:48:19.372Z,9500.00
2019-05-02T07:49:20.864Z,27968.00
2019-05-02T07:50:19.350Z,17024.00
2019-05-02T07:51:21.336Z,10472.00
2019-05-02T07:52:19.333Z,11728.00
2019-05-02T07:53:19.318Z,16320.00
2019-05-02T07:54:24.441Z,31776.00
2019-05-02T07:55:20.352Z,32928.00
2019-05-02T07:56:19.285Z,27488.00
2019-05-02T07:57:19.286Z,15972.00
2019-05-02T07:58:19.265Z,21248.00
2019-05-02T07:59:23.332Z,12896.00
2019-05-02T08:00:19.242Z,20352.00
2019-05-02T08:01:19.232Z,16448.00
2019-05-02T08:02:20.340Z,8640.00
2019-05-02T08:03:20.219Z,7596.00
2019-05-02T08:04:19.199Z,6452.00
2019-05-02T08:05:21.862Z,8500.00
2019-05-02T08:06:19.178Z,17600.00
2019-05-02T08:07:21.098Z,22880.00
2019-05-02T08:08:19.163Z,31808.00
2019-05-02T08:09:19.158Z,33152.00
2019-05-02T08:10:22.045Z,25824.00
2019-05-02T08:11:19.123Z,17344.00
2019-05-02T08:12:19.116Z,32992.00
2019-05-02T08:13:19.453Z,29280.00
2019-05-02T08:14:19.093Z,33280.00
2019-05-02T08:15:19.091Z,30304.00
2019-05-02T08:16:22.397Z,13600.00
2019-05-02T08:17:20.058Z,28032.00
2019-05-02T08:18:19.049Z,15872.00
2019-05-02T08:19:19.039Z,10600.00
2019-05-02T08:20:19.901Z,7944.00
2019-05-02T08:21:19.030Z,8676.00
2019-05-02T08:22:19.011Z,22496.00
2019-05-02T08:23:20.408Z,22656.00
2019-05-02T08:24:19.984Z,15116.00
2019-05-02T08:25:18.974Z,30752.00
2019-05-02T08:26:21.790Z,32864.00
2019-05-02T08:27:18.963Z,34432.00
2019-05-02T08:28:18.945Z,36512.00
2019-05-02T08:29:23.436Z,37952.00
2019-05-02T08:30:19.921Z,37952.00
2019-05-02T08:31:20.926Z,37824.00
2019-05-02T08:32:18.899Z,25216.00
2019-05-02T08:33:18.900Z,32768.00
2019-05-02T08:34:18.882Z,33600.00
2019-05-02T08:35:18.869Z,28064.00
2019-05-02T08:36:18.859Z,21408.00
2019-05-02T08:37:18.846Z,18144.00
2019-05-02T08:38:19.009Z,16224.00
2019-05-02T08:39:18.838Z,15788.00
2019-05-02T08:40:18.814Z,12460.00
2019-05-02T08:41:19.981Z,11580.00
2019-05-02T08:42:18.792Z,9124.00
2019-05-02T08:43:18.781Z,8236.00
2019-05-02T08:44:18.770Z,10864.00
2019-05-02T08:45:18.770Z,13176.00
2019-05-02T08:46:18.750Z,13252.00
2019-05-02T08:47:19.402Z,11464.00
2019-05-02T08:48:18.729Z,10892.00
2019-05-02T08:49:19.980Z,11940.00
2019-05-02T08:50:18.708Z,10636.00
2019-05-02T08:51:18.707Z,10072.00
2019-05-02T08:52:18.688Z,8496.00
2019-05-02T08:53:19.850Z,11172.00
2019-05-02T08:54:18.665Z,11768.00
2019-05-02T08:55:18.658Z,11208.00
2019-05-02T08:56:21.361Z,12308.00
2019-05-02T08:57:18.654Z,13144.00
2019-05-02T08:58:18.622Z,10704.00
2019-05-02T08:59:19.757Z,8928.00
2019-05-02T09:00:18.600Z,11816.00
2019-05-02T09:01:18.595Z,13044.00
2019-05-02T09:02:21.152Z,14104.00
2019-05-02T09:03:19.585Z,14000.00
2019-05-02T09:04:18.558Z,13536.00
2019-05-02T09:05:18.545Z,14008.00
2019-05-02T09:06:22.377Z,13964.00
2019-05-02T09:07:19.568Z,13060.00
2019-05-02T09:08:18.516Z,12236.00
2019-05-02T09:09:22.819Z,9908.00
2019-05-02T09:10:19.492Z,9424.00
2019-05-02T09:11:18.482Z,11548.00
2019-05-02T09:12:20.141Z,12052.00
2019-05-02T09:13:26.396Z,12812.00
2019-05-02T09:14:21.614Z,12496.00
2019-05-02T09:15:18.440Z,12676.00
2019-05-02T09:16:23.670Z,13480.00
2019-05-02T09:17:33.145Z,12368.00
2019-05-02T09:18:21.745Z,12404.00
2019-05-02T09:19:21.493Z,12076.00
2019-05-02T09:20:20.855Z,11452.00
2019-05-02T09:21:18.377Z,12252.00
2019-05-02T09:22:18.367Z,11724.00
2019-05-02T09:23:18.355Z,12160.00
2019-05-02T09:24:21.272Z,12244.00
2019-05-02T09:25:19.333Z,12192.00
2019-05-02T09:26:31.968Z,12060.00
2019-05-02T09:27:19.311Z,11896.00
2019-05-02T09:28:22.485Z,11752.00
2019-05-02T09:29:19.290Z,11176.00
2019-05-02T09:30:24.474Z,11088.00
2019-05-02T09:31:19.279Z,11200.00
2019-05-02T09:32:22.842Z,11352.00
2019-05-02T09:33:19.249Z,11600.00
2019-05-02T09:34:22.857Z,11724.00
2019-05-02T09:35:19.227Z,11852.00
2019-05-02T09:36:18.219Z,11928.00
2019-05-02T09:37:18.218Z,12028.00
2019-05-02T09:38:18.198Z,11944.00
2019-05-02T09:39:18.185Z,11412.00
2019-05-02T09:40:18.175Z,11044.00
2019-05-02T09:41:19.403Z,9164.00
2019-05-02T09:42:19.144Z,9584.00
2019-05-02T09:43:18.155Z,10424.00
2019-05-02T09:44:18.814Z,9272.00
2019-05-02T09:45:18.122Z,9516.00
2019-05-02T09:46:18.111Z,10048.00
2019-05-02T09:47:18.103Z,9660.00
2019-05-02T09:48:22.864Z,9852.00
2019-05-02T09:49:19.090Z,9288.00
2019-05-02T09:50:20.546Z,9416.00
2019-05-02T09:51:19.058Z,8616.00
2019-05-02T09:52:18.048Z,9672.00
2019-05-02T09:53:20.937Z,9184.00
2019-05-02T09:54:19.029Z,9260.00
2019-05-02T09:55:18.027Z,8924.00
2019-05-02T09:56:18.006Z,9024.00
2019-05-02T09:57:17.995Z,8992.00
2019-05-02T09:58:21.216Z,8916.00
2019-05-02T09:59:29.267Z,9064.00
2019-05-02T10:00:18.972Z,9716.00
2019-05-02T10:01:17.951Z,9776.00
2019-05-02T10:02:17.941Z,9672.00
2019-05-02T10:03:17.936Z,9180.00
2019-05-02T10:04:17.919Z,8644.00
2019-05-02T10:05:17.918Z,8936.00
2019-05-02T10:06:18.376Z,9016.00
2019-05-02T10:07:17.887Z,8752.00
2019-05-02T10:08:17.876Z,8832.00
2019-05-02T10:09:18.650Z,8828.00
2019-05-02T10:10:18.854Z,8776.00
2019-05-02T10:11:24.431Z,8992.00
2019-05-02T10:12:18.843Z,8840.00
2019-05-02T10:13:17.834Z,8712.00
2019-05-02T10:14:17.824Z,8472.00
2019-05-02T10:15:17.939Z,8480.00
2019-05-02T10:16:22.377Z,8540.00
2019-05-02T10:17:18.785Z,8364.00
2019-05-02T10:18:19.689Z,8800.00
2019-05-02T10:19:18.765Z,8944.00
2019-05-02T10:20:17.750Z,8760.00
2019-05-02T10:21:17.739Z,8936.00
2019-05-02T10:22:17.731Z,8976.00
2019-05-02T10:23:19.554Z,9464.00
2019-05-02T10:24:17.719Z,10228.00
2019-05-02T10:25:17.698Z,10228.00
2019-05-02T10:26:20.028Z,10044.00
2019-05-02T10:27:17.676Z,9264.00
2019-05-02T10:28:17.665Z,8928.00
2019-05-02T10:29:22.821Z,9876.00
2019-05-02T10:30:18.654Z,10288.00
2019-05-02T10:31:17.633Z,10360.00
2019-05-02T10:32:17.623Z,11312.00
2019-05-02T10:33:17.613Z,12556.00
2019-05-02T10:34:17.904Z,29536.00
2019-05-02T10:35:17.592Z,9884.00
2019-05-02T10:36:19.575Z,9560.00
2019-05-02T10:37:17.568Z,8140.00
2019-05-02T10:38:19.429Z,7368.00
2019-05-02T10:39:17.557Z,6576.00
2019-05-02T10:40:17.600Z,6572.00
2019-05-02T10:41:17.530Z,6844.00
2019-05-02T10:42:17.526Z,7348.00
2019-05-02T10:43:17.506Z,9020.00
2019-05-02T10:44:17.493Z,9696.00
2019-05-02T10:45:17.483Z,9400.00
2019-05-02T10:46:17.473Z,9904.00
2019-05-02T10:47:17.464Z,10008.00
2019-05-02T10:48:25.876Z,9452.00
2019-05-02T10:49:18.440Z,9296.00
2019-05-02T10:50:17.431Z,9364.00
2019-05-02T10:51:17.424Z,9256.00
2019-05-02T10:52:21.689Z,8772.00
2019-05-02T10:53:18.416Z,8812.00
2019-05-02T10:54:20.376Z,8560.00
2019-05-02T10:55:17.384Z,8452.00
2019-05-02T10:56:17.366Z,8340.00
2019-05-02T10:57:17.376Z,8372.00
2019-05-02T10:58:17.348Z,7888.00
2019-05-02T10:59:17.362Z,8028.00
2019-05-02T11:00:17.326Z,9208.00
2019-05-02T11:01:17.311Z,9056.00
2019-05-02T11:02:17.301Z,10168.00
2019-05-02T11:03:17.290Z,10084.00
2019-05-02T11:04:17.279Z,10492.00
2019-05-02T11:05:22.588Z,10736.00
2019-05-02T11:06:18.255Z,10800.00
2019-05-02T11:07:21.943Z,11012.00
2019-05-02T11:08:18.236Z,10576.00
2019-05-02T11:09:22.502Z,10288.00
2019-05-02T11:10:18.225Z,9524.00
2019-05-02T11:11:17.205Z,9120.00
2019-05-02T11:12:24.232Z,8552.00
2019-05-02T11:13:18.181Z,8360.00
2019-05-02T11:14:17.169Z,7696.00
2019-05-02T11:15:17.170Z,7548.00
2019-05-02T11:16:17.167Z,7552.00
2019-05-02T11:17:17.992Z,8524.00
2019-05-02T11:18:17.130Z,8500.00
2019-05-02T11:19:17.196Z,7608.00
2019-05-02T11:20:17.106Z,7016.00
2019-05-02T11:21:18.827Z,6684.00
2019-05-02T11:22:17.101Z,6332.00
2019-05-02T11:23:17.072Z,7140.00
2019-05-02T11:24:17.060Z,7168.00
2019-05-02T11:25:17.050Z,7560.00
2019-05-02T11:26:21.505Z,6548.00
2019-05-02T11:27:18.046Z,6552.00
2019-05-02T11:28:17.021Z,6688.00
2019-05-02T11:29:17.008Z,6476.00
2019-05-02T11:30:21.499Z,7808.00
2019-05-02T11:31:17.982Z,8120.00
2019-05-02T11:32:16.979Z,8028.00
2019-05-02T11:33:16.992Z,8292.00
2019-05-02T11:34:16.962Z,6428.00
2019-05-02T11:35:16.942Z,7228.00
2019-05-02T11:36:16.931Z,6700.00
2019-05-02T11:37:16.921Z,6996.00
2019-05-02T11:38:37.135Z,7556.00
2019-05-02T11:39:25.476Z,7624.00
2019-05-02T11:40:17.887Z,7556.00
2019-05-02T11:41:16.879Z,7736.00
2019-05-02T11:42:17.672Z,8276.00
2019-05-02T11:43:17.857Z,8192.00
2019-05-02T11:44:16.847Z,7908.00
2019-05-02T11:45:16.847Z,7884.00
2019-05-02T11:46:16.823Z,7816.00
2019-05-02T11:47:17.290Z,8276.00
2019-05-02T11:48:19.636Z,8820.00
2019-05-02T11:49:16.791Z,8900.00
2019-05-02T11:50:16.788Z,8720.00
2019-05-02T11:51:16.778Z,8668.00
2019-05-02T11:52:16.772Z,8708.00
2019-05-02T11:53:29.016Z,8808.00
2019-05-02T11:54:17.735Z,8668.00
2019-05-02T11:55:18.997Z,8240.00
2019-05-02T11:56:17.727Z,7988.00
2019-05-02T11:57:22.719Z,7900.00
2019-05-02T11:58:17.690Z,7684.00
2019-05-02T11:59:20.786Z,8284.00
2019-05-02T12:00:17.669Z,7440.00
2019-05-02T12:01:20.163Z,7892.00
2019-05-02T12:02:18.979Z,7992.00
2019-05-02T12:03:16.638Z,7768.00
2019-05-02T12:04:17.058Z,7688.00
2019-05-02T12:05:16.629Z,6892.00
2019-05-02T12:06:19.772Z,7244.00
2019-05-02T12:07:16.603Z,6320.00
2019-05-02T12:08:16.600Z,6020.00
2019-05-02T12:09:16.571Z,5928.00
2019-05-02T12:10:16.561Z,6576.00
2019-05-02T12:11:17.805Z,6588.00
2019-05-02T12:12:16.538Z,6020.00
2019-05-02T12:13:16.532Z,5172.00
2019-05-02T12:14:16.528Z,4472.00
2019-05-02T12:15:16.505Z,4096.00
2019-05-02T12:16:16.495Z,4548.00
2019-05-02T12:17:16.488Z,5324.00
2019-05-02T12:18:16.472Z,5604.00
2019-05-02T12:19:16.469Z,6312.00
2019-05-02T12:20:16.479Z,6736.00
2019-05-02T12:21:16.445Z,6028.00
2019-05-02T12:22:17.059Z,6044.00
2019-05-02T12:23:16.424Z,5420.00
2019-05-02T12:24:16.410Z,4996.00
2019-05-02T12:25:16.399Z,4940.00
2019-05-02T12:26:16.404Z,4080.00
2019-05-02T12:27:16.383Z,3756.00